sensor_id;sensor_type;location;lat;lon;timestamp;P1;durP1;ratioP1;P2;durP2;ratioP2
19897;SDS011;10111;50.814;4.572;2023-02-28T00:01:10;7.60;;;4.80;;
19897;SDS011;10111;50.814;4.572;2023-02-28T00:03:40;6.13;;;4.90;;
19897;SDS011;10111;50.814;4.572;2023-02-28T00:06:06;6.73;;;5.43;;
19897;SDS011;10111;50.814;4.572;2023-02-28T00:08:34;10.10;;;5.70;;
19897;SDS011;10111;50.814;4.572;2023-02-28T00:11:01;5.77;;;4.90;;
19897;SDS011;10111;50.814;4.572;2023-02-28T00:13:28;6.77;;;5.10;;
19897;SDS011;10111;50.814;4.572;2023-02-28T00:16:03;13.10;;;6.77;;
19897;SDS011;10111;50.814;4.572;2023-02-28T00:18:35;6.97;;;4.77;;
19897;SDS011;10111;50.814;4.572;2023-02-28T00:21:01;7.77;;;4.50;;
19897;SDS011;10111;50.814;4.572;2023-02-28T00:23:27;7.67;;;5.47;;
19897;SDS011;10111;50.814;4.572;2023-02-28T00:25:53;7.63;;;5.80;;
19897;SDS011;10111;50.814;4.572;2023-02-28T00:28:19;4.73;;;4.30;;
19897;SDS011;10111;50.814;4.572;2023-02-28T00:30:45;6.53;;;5.03;;
19897;SDS011;10111;50.814;4.572;2023-02-28T00:33:10;9.40;;;5.00;;
19897;SDS011;10111;50.814;4.572;2023-02-28T00:35:36;6.40;;;4.43;;
19897;SDS011;10111;50.814;4.572;2023-02-28T00:38:02;8.63;;;5.20;;
19897;SDS011;10111;50.814;4.572;2023-02-28T00:40:28;8.60;;;5.63;;
19897;SDS011;10111;50.814;4.572;2023-02-28T00:42:54;11.90;;;5.27;;
19897;SDS011;10111;50.814;4.572;2023-02-28T00:45:20;5.07;;;3.93;;
19897;SDS011;10111;50.814;4.572;2023-02-28T00:47:46;8.73;;;5.43;;
19897;SDS011;10111;50.814;4.572;2023-02-28T00:50:14;12.60;;;5.63;;
19897;SDS011;10111;50.814;4.572;2023-02-28T00:52:45;7.70;;;5.33;;
19897;SDS011;10111;50.814;4.572;2023-02-28T00:55:11;5.37;;;4.50;;
19897;SDS011;10111;50.814;4.572;2023-02-28T00:57:37;10.97;;;5.60;;
19897;SDS011;10111;50.814;4.572;2023-02-28T01:00:03;5.07;;;4.60;;
19897;SDS011;10111;50.814;4.572;2023-02-28T01:02:29;5.77;;;4.93;;
19897;SDS011;10111;50.814;4.572;2023-02-28T01:04:55;7.07;;;5.00;;
19897;SDS011;10111;50.814;4.572;2023-02-28T01:07:21;8.03;;;4.80;;
19897;SDS011;10111;50.814;4.572;2023-02-28T01:09:47;5.33;;;4.67;;
19897;SDS011;10111;50.814;4.572;2023-02-28T01:12:13;7.93;;;5.53;;
19897;SDS011;10111;50.814;4.572;2023-02-28T01:14:39;4.97;;;4.47;;
19897;SDS011;10111;50.814;4.572;2023-02-28T01:17:04;6.33;;;4.40;;
19897;SDS011;10111;50.814;4.572;2023-02-28T01:19:30;8.43;;;4.60;;
19897;SDS011;10111;50.814;4.572;2023-02-28T01:22:02;7.80;;;5.23;;
19897;SDS011;10111;50.814;4.572;2023-02-28T01:24:31;5.97;;;5.03;;
19897;SDS011;10111;50.814;4.572;2023-02-28T01:26:57;6.63;;;4.90;;
19897;SDS011;10111;50.814;4.572;2023-02-28T01:29:23;6.93;;;5.10;;
19897;SDS011;10111;50.814;4.572;2023-02-28T01:31:49;6.97;;;5.00;;
19897;SDS011;10111;50.814;4.572;2023-02-28T01:34:15;7.33;;;5.17;;
19897;SDS011;10111;50.814;4.572;2023-02-28T01:36:41;6.17;;;5.37;;
19897;SDS011;10111;50.814;4.572;2023-02-28T01:39:06;9.07;;;4.80;;
19897;SDS011;10111;50.814;4.572;2023-02-28T01:41:33;6.37;;;5.17;;
19897;SDS011;10111;50.814;4.572;2023-02-28T01:44:04;12.30;;;5.77;;
19897;SDS011;10111;50.814;4.572;2023-02-28T01:46:33;7.03;;;5.23;;
19897;SDS011;10111;50.814;4.572;2023-02-28T01:49:02;5.57;;;5.03;;
19897;SDS011;10111;50.814;4.572;2023-02-28T01:51:41;10.17;;;5.30;;
19897;SDS011;10111;50.814;4.572;2023-02-28T01:54:24;10.33;;;5.80;;
19897;SDS011;10111;50.814;4.572;2023-02-28T01:57:12;6.40;;;5.00;;
19897;SDS011;10111;50.814;4.572;2023-02-28T02:02:15;7.53;;;5.13;;
19897;SDS011;10111;50.814;4.572;2023-02-28T02:04:48;6.47;;;4.80;;
19897;SDS011;10111;50.814;4.572;2023-02-28T02:07:20;8.03;;;5.10;;
19897;SDS011;10111;50.814;4.572;2023-02-28T02:09:46;7.87;;;5.33;;
19897;SDS011;10111;50.814;4.572;2023-02-28T02:12:20;6.53;;;4.80;;
19897;SDS011;10111;50.814;4.572;2023-02-28T02:17:34;6.17;;;5.13;;
19897;SDS011;10111;50.814;4.572;2023-02-28T02:39:42;7.60;;;5.13;;
19897;SDS011;10111;50.814;4.572;2023-02-28T02:42:56;12.07;;;6.37;;
19897;SDS011;10111;50.814;4.572;2023-02-28T02:45:28;8.70;;;6.03;;
19897;SDS011;10111;50.814;4.572;2023-02-28T02:48:11;8.43;;;5.77;;
19897;SDS011;10111;50.814;4.572;2023-02-28T02:50:44;8.17;;;6.33;;
19897;SDS011;10111;50.814;4.572;2023-02-28T02:53:14;7.03;;;5.40;;
19897;SDS011;10111;50.814;4.572;2023-02-28T02:55:44;9.80;;;6.30;;
19897;SDS011;10111;50.814;4.572;2023-02-28T02:58:17;7.07;;;6.07;;
19897;SDS011;10111;50.814;4.572;2023-02-28T03:00:50;7.10;;;5.53;;
19897;SDS011;10111;50.814;4.572;2023-02-28T03:03:18;9.60;;;5.83;;
19897;SDS011;10111;50.814;4.572;2023-02-28T03:05:54;6.90;;;5.17;;
19897;SDS011;10111;50.814;4.572;2023-02-28T03:08:26;9.20;;;6.20;;
19897;SDS011;10111;50.814;4.572;2023-02-28T03:10:58;6.90;;;6.20;;
19897;SDS011;10111;50.814;4.572;2023-02-28T03:16:32;7.77;;;6.47;;
19897;SDS011;10111;50.814;4.572;2023-02-28T03:24:49;10.17;;;6.43;;
19897;SDS011;10111;50.814;4.572;2023-02-28T03:27:29;12.13;;;7.40;;
19897;SDS011;10111;50.814;4.572;2023-02-28T03:30:10;13.30;;;6.90;;
19897;SDS011;10111;50.814;4.572;2023-02-28T03:32:44;12.53;;;7.03;;
19897;SDS011;10111;50.814;4.572;2023-02-28T03:35:24;7.50;;;5.50;;
19897;SDS011;10111;50.814;4.572;2023-02-28T03:37:58;9.33;;;7.50;;
19897;SDS011;10111;50.814;4.572;2023-02-28T03:40:30;10.87;;;6.77;;
19897;SDS011;10111;50.814;4.572;2023-02-28T03:42:59;9.47;;;6.87;;
19897;SDS011;10111;50.814;4.572;2023-02-28T03:45:30;9.43;;;7.07;;
19897;SDS011;10111;50.814;4.572;2023-02-28T03:48:01;9.63;;;6.00;;
19897;SDS011;10111;50.814;4.572;2023-02-28T03:55:42;10.53;;;6.33;;
19897;SDS011;10111;50.814;4.572;2023-02-28T04:00:59;10.50;;;8.03;;
19897;SDS011;10111;50.814;4.572;2023-02-28T04:03:33;11.00;;;7.03;;
19897;SDS011;10111;50.814;4.572;2023-02-28T04:06:03;11.63;;;6.60;;
19897;SDS011;10111;50.814;4.572;2023-02-28T04:08:30;10.80;;;7.00;;
19897;SDS011;10111;50.814;4.572;2023-02-28T04:10:58;12.90;;;7.90;;
19897;SDS011;10111;50.814;4.572;2023-02-28T04:13:29;9.17;;;7.00;;
19897;SDS011;10111;50.814;4.572;2023-02-28T04:15:54;8.10;;;6.70;;
19897;SDS011;10111;50.814;4.572;2023-02-28T04:18:20;9.97;;;7.03;;
19897;SDS011;10111;50.814;4.572;2023-02-28T04:20:45;7.90;;;6.33;;
19897;SDS011;10111;50.814;4.572;2023-02-28T04:23:11;9.93;;;7.60;;
19897;SDS011;10111;50.814;4.572;2023-02-28T04:25:37;13.37;;;8.20;;
19897;SDS011;10111;50.814;4.572;2023-02-28T04:28:05;12.63;;;7.40;;
19897;SDS011;10111;50.814;4.572;2023-02-28T04:30:31;11.67;;;7.90;;
19897;SDS011;10111;50.814;4.572;2023-02-28T04:32:57;9.63;;;7.87;;
19897;SDS011;10111;50.814;4.572;2023-02-28T04:35:23;11.97;;;8.00;;
19897;SDS011;10111;50.814;4.572;2023-02-28T04:37:49;10.93;;;7.77;;
19897;SDS011;10111;50.814;4.572;2023-02-28T04:40:14;9.47;;;8.10;;
19897;SDS011;10111;50.814;4.572;2023-02-28T04:42:40;12.23;;;7.33;;
19897;SDS011;10111;50.814;4.572;2023-02-28T04:45:06;10.70;;;8.03;;
19897;SDS011;10111;50.814;4.572;2023-02-28T04:47:35;11.20;;;7.37;;
19897;SDS011;10111;50.814;4.572;2023-02-28T04:50:01;15.23;;;9.57;;
19897;SDS011;10111;50.814;4.572;2023-02-28T04:52:27;14.87;;;10.30;;
19897;SDS011;10111;50.814;4.572;2023-02-28T04:54:52;9.77;;;8.57;;
19897;SDS011;10111;50.814;4.572;2023-02-28T04:57:18;11.27;;;9.40;;
19897;SDS011;10111;50.814;4.572;2023-02-28T04:59:44;10.30;;;9.07;;
19897;SDS011;10111;50.814;4.572;2023-02-28T05:02:09;48.57;;;31.27;;
19897;SDS011;10111;50.814;4.572;2023-02-28T05:04:35;46.40;;;26.60;;
19897;SDS011;10111;50.814;4.572;2023-02-28T05:07:01;45.60;;;29.03;;
19897;SDS011;10111;50.814;4.572;2023-02-28T05:09:28;19.40;;;12.40;;
19897;SDS011;10111;50.814;4.572;2023-02-28T05:11:54;13.67;;;9.80;;
19897;SDS011;10111;50.814;4.572;2023-02-28T05:14:20;18.53;;;9.93;;
19897;SDS011;10111;50.814;4.572;2023-02-28T05:16:45;13.17;;;8.33;;
19897;SDS011;10111;50.814;4.572;2023-02-28T05:19:11;14.57;;;11.77;;
19897;SDS011;10111;50.814;4.572;2023-02-28T05:21:40;12.87;;;8.20;;
19897;SDS011;10111;50.814;4.572;2023-02-28T05:24:14;21.10;;;14.80;;
19897;SDS011;10111;50.814;4.572;2023-02-28T05:26:40;15.07;;;10.00;;
19897;SDS011;10111;50.814;4.572;2023-02-28T05:29:07;14.33;;;8.40;;
19897;SDS011;10111;50.814;4.572;2023-02-28T05:31:34;10.47;;;8.40;;
19897;SDS011;10111;50.814;4.572;2023-02-28T05:34:00;10.67;;;8.00;;
19897;SDS011;10111;50.814;4.572;2023-02-28T05:36:26;12.50;;;9.53;;
19897;SDS011;10111;50.814;4.572;2023-02-28T05:38:52;15.53;;;11.60;;
19897;SDS011;10111;50.814;4.572;2023-02-28T05:41:18;14.37;;;11.37;;
19897;SDS011;10111;50.814;4.572;2023-02-28T05:43:45;11.83;;;9.90;;
19897;SDS011;10111;50.814;4.572;2023-02-28T05:46:11;16.87;;;10.83;;
19897;SDS011;10111;50.814;4.572;2023-02-28T05:48:37;14.67;;;10.57;;
19897;SDS011;10111;50.814;4.572;2023-02-28T05:51:04;14.43;;;11.50;;
19897;SDS011;10111;50.814;4.572;2023-02-28T05:53:31;12.27;;;9.47;;
19897;SDS011;10111;50.814;4.572;2023-02-28T05:55:57;13.60;;;10.63;;
19897;SDS011;10111;50.814;4.572;2023-02-28T05:58:23;14.50;;;10.53;;
19897;SDS011;10111;50.814;4.572;2023-02-28T06:00:50;16.23;;;11.00;;
19897;SDS011;10111;50.814;4.572;2023-02-28T06:03:16;18.57;;;12.77;;
19897;SDS011;10111;50.814;4.572;2023-02-28T06:05:41;16.23;;;9.30;;
19897;SDS011;10111;50.814;4.572;2023-02-28T06:08:07;11.73;;;8.93;;
19897;SDS011;10111;50.814;4.572;2023-02-28T06:10:33;16.77;;;9.80;;
19897;SDS011;10111;50.814;4.572;2023-02-28T06:13:00;13.97;;;8.90;;
19897;SDS011;10111;50.814;4.572;2023-02-28T06:15:29;11.87;;;9.03;;
19897;SDS011;10111;50.814;4.572;2023-02-28T06:17:56;14.07;;;8.83;;
19897;SDS011;10111;50.814;4.572;2023-02-28T06:20:22;17.40;;;9.77;;
19897;SDS011;10111;50.814;4.572;2023-02-28T06:22:50;12.40;;;8.93;;
19897;SDS011;10111;50.814;4.572;2023-02-28T06:25:16;17.33;;;9.37;;
19897;SDS011;10111;50.814;4.572;2023-02-28T06:27:42;14.27;;;9.70;;
19897;SDS011;10111;50.814;4.572;2023-02-28T06:30:09;15.17;;;9.77;;
19897;SDS011;10111;50.814;4.572;2023-02-28T06:32:35;13.83;;;10.13;;
19897;SDS011;10111;50.814;4.572;2023-02-28T06:35:01;14.97;;;9.53;;
19897;SDS011;10111;50.814;4.572;2023-02-28T06:37:28;14.00;;;9.50;;
19897;SDS011;10111;50.814;4.572;2023-02-28T06:39:55;11.83;;;7.77;;
19897;SDS011;10111;50.814;4.572;2023-02-28T06:42:21;13.07;;;8.50;;
19897;SDS011;10111;50.814;4.572;2023-02-28T06:44:49;14.27;;;9.67;;
19897;SDS011;10111;50.814;4.572;2023-02-28T06:47:16;15.57;;;11.63;;
19897;SDS011;10111;50.814;4.572;2023-02-28T06:49:42;14.93;;;9.57;;
19897;SDS011;10111;50.814;4.572;2023-02-28T06:52:10;16.67;;;13.07;;
19897;SDS011;10111;50.814;4.572;2023-02-28T06:54:36;24.73;;;17.93;;
19897;SDS011;10111;50.814;4.572;2023-02-28T06:57:02;25.83;;;20.67;;
19897;SDS011;10111;50.814;4.572;2023-02-28T06:59:28;39.23;;;30.17;;
19897;SDS011;10111;50.814;4.572;2023-02-28T07:01:54;15.63;;;10.00;;
19897;SDS011;10111;50.814;4.572;2023-02-28T07:04:20;16.53;;;13.97;;
19897;SDS011;10111;50.814;4.572;2023-02-28T07:06:46;19.70;;;11.73;;
19897;SDS011;10111;50.814;4.572;2023-02-28T07:09:11;19.17;;;12.90;;
19897;SDS011;10111;50.814;4.572;2023-02-28T07:11:38;15.30;;;10.40;;
19897;SDS011;10111;50.814;4.572;2023-02-28T07:14:04;17.40;;;11.43;;
19897;SDS011;10111;50.814;4.572;2023-02-28T07:16:30;18.37;;;16.47;;
19897;SDS011;10111;50.814;4.572;2023-02-28T07:18:55;17.30;;;12.00;;
19897;SDS011;10111;50.814;4.572;2023-02-28T07:21:21;13.30;;;10.00;;
19897;SDS011;10111;50.814;4.572;2023-02-28T07:23:47;11.13;;;9.90;;
19897;SDS011;10111;50.814;4.572;2023-02-28T07:26:14;16.93;;;11.53;;
19897;SDS011;10111;50.814;4.572;2023-02-28T07:28:42;18.47;;;11.37;;
19897;SDS011;10111;50.814;4.572;2023-02-28T07:31:09;14.70;;;9.90;;
19897;SDS011;10111;50.814;4.572;2023-02-28T07:33:35;12.93;;;9.93;;
19897;SDS011;10111;50.814;4.572;2023-02-28T07:36:02;14.17;;;10.47;;
19897;SDS011;10111;50.814;4.572;2023-02-28T07:38:30;13.10;;;9.10;;
19897;SDS011;10111;50.814;4.572;2023-02-28T07:40:56;12.87;;;8.77;;
19897;SDS011;10111;50.814;4.572;2023-02-28T07:43:21;12.50;;;7.33;;
19897;SDS011;10111;50.814;4.572;2023-02-28T07:45:47;16.63;;;7.53;;
19897;SDS011;10111;50.814;4.572;2023-02-28T07:48:12;10.73;;;8.73;;
19897;SDS011;10111;50.814;4.572;2023-02-28T07:50:38;15.33;;;8.13;;
19897;SDS011;10111;50.814;4.572;2023-02-28T07:53:04;10.80;;;8.77;;
19897;SDS011;10111;50.814;4.572;2023-02-28T07:55:29;10.43;;;7.20;;
19897;SDS011;10111;50.814;4.572;2023-02-28T07:57:56;9.20;;;7.80;;
19897;SDS011;10111;50.814;4.572;2023-02-28T08:00:23;8.83;;;6.23;;
19897;SDS011;10111;50.814;4.572;2023-02-28T08:02:48;9.00;;;6.83;;
19897;SDS011;10111;50.814;4.572;2023-02-28T08:05:14;13.00;;;8.03;;
19897;SDS011;10111;50.814;4.572;2023-02-28T08:07:40;8.37;;;6.50;;
19897;SDS011;10111;50.814;4.572;2023-02-28T08:10:06;12.60;;;6.73;;
19897;SDS011;10111;50.814;4.572;2023-02-28T08:12:32;10.67;;;7.30;;
19897;SDS011;10111;50.814;4.572;2023-02-28T08:14:58;6.57;;;5.73;;
19897;SDS011;10111;50.814;4.572;2023-02-28T08:17:23;7.50;;;5.30;;
19897;SDS011;10111;50.814;4.572;2023-02-28T08:19:49;7.00;;;6.30;;
19897;SDS011;10111;50.814;4.572;2023-02-28T08:22:15;12.97;;;7.53;;
19897;SDS011;10111;50.814;4.572;2023-02-28T08:24:41;7.50;;;5.70;;
19897;SDS011;10111;50.814;4.572;2023-02-28T08:27:08;12.90;;;6.30;;
19897;SDS011;10111;50.814;4.572;2023-02-28T08:29:33;10.77;;;6.80;;
19897;SDS011;10111;50.814;4.572;2023-02-28T08:32:01;7.97;;;5.50;;
19897;SDS011;10111;50.814;4.572;2023-02-28T08:34:27;9.10;;;5.10;;
19897;SDS011;10111;50.814;4.572;2023-02-28T08:36:52;7.20;;;5.63;;
19897;SDS011;10111;50.814;4.572;2023-02-28T08:39:18;10.13;;;5.20;;
19897;SDS011;10111;50.814;4.572;2023-02-28T08:41:45;5.20;;;4.70;;
19897;SDS011;10111;50.814;4.572;2023-02-28T08:44:10;11.27;;;5.50;;
19897;SDS011;10111;50.814;4.572;2023-02-28T08:46:36;8.23;;;5.73;;
19897;SDS011;10111;50.814;4.572;2023-02-28T08:49:02;6.57;;;5.00;;
19897;SDS011;10111;50.814;4.572;2023-02-28T08:51:28;7.27;;;5.53;;
19897;SDS011;10111;50.814;4.572;2023-02-28T08:53:54;11.10;;;5.30;;
19897;SDS011;10111;50.814;4.572;2023-02-28T08:56:23;6.17;;;5.30;;
19897;SDS011;10111;50.814;4.572;2023-02-28T08:58:49;5.33;;;4.60;;
19897;SDS011;10111;50.814;4.572;2023-02-28T09:01:16;7.33;;;5.03;;
19897;SDS011;10111;50.814;4.572;2023-02-28T09:03:44;6.77;;;5.13;;
19897;SDS011;10111;50.814;4.572;2023-02-28T09:06:12;6.23;;;4.60;;
19897;SDS011;10111;50.814;4.572;2023-02-28T09:08:38;5.70;;;5.07;;
19897;SDS011;10111;50.814;4.572;2023-02-28T09:11:04;5.83;;;5.23;;
19897;SDS011;10111;50.814;4.572;2023-02-28T09:13:30;6.20;;;4.67;;
19897;SDS011;10111;50.814;4.572;2023-02-28T09:15:58;7.93;;;4.83;;
19897;SDS011;10111;50.814;4.572;2023-02-28T09:18:25;8.10;;;3.60;;
19897;SDS011;10111;50.814;4.572;2023-02-28T09:20:51;5.90;;;4.53;;
19897;SDS011;10111;50.814;4.572;2023-02-28T09:23:17;5.03;;;4.20;;
19897;SDS011;10111;50.814;4.572;2023-02-28T09:25:47;6.57;;;4.37;;
19897;SDS011;10111;50.814;4.572;2023-02-28T09:28:15;5.10;;;3.70;;
19897;SDS011;10111;50.814;4.572;2023-02-28T09:30:41;5.30;;;3.47;;
19897;SDS011;10111;50.814;4.572;2023-02-28T09:33:12;5.03;;;4.53;;
19897;SDS011;10111;50.814;4.572;2023-02-28T09:35:38;3.93;;;3.50;;
19897;SDS011;10111;50.814;4.572;2023-02-28T09:38:04;4.30;;;3.63;;
19897;SDS011;10111;50.814;4.572;2023-02-28T09:40:30;4.73;;;3.57;;
19897;SDS011;10111;50.814;4.572;2023-02-28T09:42:57;4.07;;;2.83;;
19897;SDS011;10111;50.814;4.572;2023-02-28T09:48:03;4.37;;;3.50;;
19897;SDS011;10111;50.814;4.572;2023-02-28T09:50:36;6.17;;;3.67;;
19897;SDS011;10111;50.814;4.572;2023-02-28T09:53:11;3.17;;;2.87;;
19897;SDS011;10111;50.814;4.572;2023-02-28T09:55:55;3.60;;;3.23;;
19897;SDS011;10111;50.814;4.572;2023-02-28T09:58:30;18.53;;;4.60;;
19897;SDS011;10111;50.814;4.572;2023-02-28T10:01:21;2.67;;;2.40;;
19897;SDS011;10111;50.814;4.572;2023-02-28T10:04:15;2.80;;;2.20;;
19897;SDS011;10111;50.814;4.572;2023-02-28T10:06:46;4.03;;;2.83;;
19897;SDS011;10111;50.814;4.572;2023-02-28T10:09:25;3.50;;;2.83;;
19897;SDS011;10111;50.814;4.572;2023-02-28T10:11:56;3.00;;;2.50;;
19897;SDS011;10111;50.814;4.572;2023-02-28T10:14:34;5.33;;;2.83;;
19897;SDS011;10111;50.814;4.572;2023-02-28T10:17:16;2.40;;;2.20;;
19897;SDS011;10111;50.814;4.572;2023-02-28T10:22:19;3.13;;;2.23;;
19897;SDS011;10111;50.814;4.572;2023-02-28T10:24:46;3.33;;;2.60;;
19897;SDS011;10111;50.814;4.572;2023-02-28T10:27:17;2.80;;;2.53;;
19897;SDS011;10111;50.814;4.572;2023-02-28T10:29:46;5.13;;;2.43;;
19897;SDS011;10111;50.814;4.572;2023-02-28T10:32:20;2.80;;;2.60;;
19897;SDS011;10111;50.814;4.572;2023-02-28T10:37:47;3.40;;;2.20;;
19897;SDS011;10111;50.814;4.572;2023-02-28T10:43:00;3.57;;;3.27;;
19897;SDS011;10111;50.814;4.572;2023-02-28T10:45:28;2.60;;;2.37;;
19897;SDS011;10111;50.814;4.572;2023-02-28T10:48:04;3.77;;;3.00;;
19897;SDS011;10111;50.814;4.572;2023-02-28T10:58:23;4.77;;;2.43;;
19897;SDS011;10111;50.814;4.572;2023-02-28T11:00:50;4.20;;;3.20;;
19897;SDS011;10111;50.814;4.572;2023-02-28T11:03:24;3.37;;;2.30;;
19897;SDS011;10111;50.814;4.572;2023-02-28T11:06:07;4.47;;;2.73;;
19897;SDS011;10111;50.814;4.572;2023-02-28T11:08:50;2.27;;;2.07;;
19897;SDS011;10111;50.814;4.572;2023-02-28T11:11:16;2.90;;;2.30;;
19897;SDS011;10111;50.814;4.572;2023-02-28T11:13:44;3.33;;;2.67;;
19897;SDS011;10111;50.814;4.572;2023-02-28T11:16:12;2.80;;;2.50;;
19897;SDS011;10111;50.814;4.572;2023-02-28T11:18:41;6.10;;;3.70;;
19897;SDS011;10111;50.814;4.572;2023-02-28T11:21:16;5.10;;;2.70;;
19897;SDS011;10111;50.814;4.572;2023-02-28T11:23:49;3.93;;;3.07;;
19897;SDS011;10111;50.814;4.572;2023-02-28T11:26:17;3.60;;;3.30;;
19897;SDS011;10111;50.814;4.572;2023-02-28T11:34:35;5.27;;;3.17;;
19897;SDS011;10111;50.814;4.572;2023-02-28T11:37:02;3.60;;;2.63;;
19897;SDS011;10111;50.814;4.572;2023-02-28T11:39:34;3.87;;;2.70;;
19897;SDS011;10111;50.814;4.572;2023-02-28T11:47:32;2.90;;;2.50;;
19897;SDS011;10111;50.814;4.572;2023-02-28T11:52:54;3.47;;;2.60;;
19897;SDS011;10111;50.814;4.572;2023-02-28T11:55:27;4.10;;;2.60;;
19897;SDS011;10111;50.814;4.572;2023-02-28T12:11:21;3.63;;;2.53;;
19897;SDS011;10111;50.814;4.572;2023-02-28T12:22:28;2.93;;;1.90;;
19897;SDS011;10111;50.814;4.572;2023-02-28T12:27:33;6.20;;;3.37;;
19897;SDS011;10111;50.814;4.572;2023-02-28T12:30:15;3.77;;;2.77;;
19897;SDS011;10111;50.814;4.572;2023-02-28T12:32:56;2.57;;;2.13;;
19897;SDS011;10111;50.814;4.572;2023-02-28T12:35:33;2.33;;;2.10;;
19897;SDS011;10111;50.814;4.572;2023-02-28T12:38:09;4.27;;;2.90;;
19897;SDS011;10111;50.814;4.572;2023-02-28T12:41:01;5.73;;;3.00;;
19897;SDS011;10111;50.814;4.572;2023-02-28T12:43:36;3.53;;;3.23;;
19897;SDS011;10111;50.814;4.572;2023-02-28T12:46:17;2.90;;;2.60;;
19897;SDS011;10111;50.814;4.572;2023-02-28T12:49:05;4.53;;;2.97;;
19897;SDS011;10111;50.814;4.572;2023-02-28T12:51:52;3.57;;;2.83;;
19897;SDS011;10111;50.814;4.572;2023-02-28T12:54:27;2.80;;;2.50;;
19897;SDS011;10111;50.814;4.572;2023-02-28T12:56:58;2.80;;;2.57;;
19897;SDS011;10111;50.814;4.572;2023-02-28T12:59:55;2.80;;;2.57;;
19897;SDS011;10111;50.814;4.572;2023-02-28T13:11:25;2.73;;;2.50;;
19897;SDS011;10111;50.814;4.572;2023-02-28T13:14:05;1.80;;;1.70;;
19897;SDS011;10111;50.814;4.572;2023-02-28T13:16:58;2.90;;;2.60;;
19897;SDS011;10111;50.814;4.572;2023-02-28T13:19:57;3.33;;;2.07;;
19897;SDS011;10111;50.814;4.572;2023-02-28T13:25:04;4.33;;;2.97;;
19897;SDS011;10111;50.814;4.572;2023-02-28T13:28:13;3.33;;;2.27;;
19897;SDS011;10111;50.814;4.572;2023-02-28T13:31:13;5.03;;;2.60;;
19897;SDS011;10111;50.814;4.572;2023-02-28T13:38:43;2.53;;;2.30;;
19897;SDS011;10111;50.814;4.572;2023-02-28T13:44:01;3.40;;;2.73;;
19897;SDS011;10111;50.814;4.572;2023-02-28T13:46:33;4.07;;;2.97;;
19897;SDS011;10111;50.814;4.572;2023-02-28T13:51:55;2.80;;;2.17;;
19897;SDS011;10111;50.814;4.572;2023-02-28T13:54:56;2.97;;;2.67;;
19897;SDS011;10111;50.814;4.572;2023-02-28T14:05:36;2.77;;;2.43;;
19897;SDS011;10111;50.814;4.572;2023-02-28T14:08:08;3.57;;;2.60;;
19897;SDS011;10111;50.814;4.572;2023-02-28T14:10:48;5.23;;;2.77;;
19897;SDS011;10111;50.814;4.572;2023-02-28T14:18:32;5.50;;;2.80;;
19897;SDS011;10111;50.814;4.572;2023-02-28T14:35:35;3.50;;;2.63;;
19897;SDS011;10111;50.814;4.572;2023-02-28T14:38:00;4.67;;;3.37;;
19897;SDS011;10111;50.814;4.572;2023-02-28T14:40:35;3.43;;;3.13;;
19897;SDS011;10111;50.814;4.572;2023-02-28T14:43:15;3.20;;;2.90;;
19897;SDS011;10111;50.814;4.572;2023-02-28T14:45:47;3.47;;;2.80;;
19897;SDS011;10111;50.814;4.572;2023-02-28T14:48:17;3.47;;;3.17;;
19897;SDS011;10111;50.814;4.572;2023-02-28T14:50:48;3.53;;;3.10;;
19897;SDS011;10111;50.814;4.572;2023-02-28T14:53:18;3.33;;;2.57;;
19897;SDS011;10111;50.814;4.572;2023-02-28T14:55:46;3.07;;;2.50;;
19897;SDS011;10111;50.814;4.572;2023-02-28T15:00:53;3.43;;;3.13;;
19897;SDS011;10111;50.814;4.572;2023-02-28T15:06:12;3.20;;;2.67;;
19897;SDS011;10111;50.814;4.572;2023-02-28T15:08:42;4.07;;;3.30;;
19897;SDS011;10111;50.814;4.572;2023-02-28T15:11:16;4.77;;;3.07;;
19897;SDS011;10111;50.814;4.572;2023-02-28T15:13:53;4.37;;;3.27;;
19897;SDS011;10111;50.814;4.572;2023-02-28T15:18:55;4.07;;;3.67;;
19897;SDS011;10111;50.814;4.572;2023-02-28T15:21:28;4.20;;;3.07;;
19897;SDS011;10111;50.814;4.572;2023-02-28T15:23:58;5.87;;;3.27;;
19897;SDS011;10111;50.814;4.572;2023-02-28T15:26:57;6.40;;;3.53;;
19897;SDS011;10111;50.814;4.572;2023-02-28T15:29:25;3.90;;;3.43;;
19897;SDS011;10111;50.814;4.572;2023-02-28T15:32:00;3.10;;;2.83;;
19897;SDS011;10111;50.814;4.572;2023-02-28T15:39:52;3.87;;;3.17;;
19897;SDS011;10111;50.814;4.572;2023-02-28T15:42:20;3.90;;;3.37;;
19897;SDS011;10111;50.814;4.572;2023-02-28T15:44:47;3.70;;;3.20;;
19897;SDS011;10111;50.814;4.572;2023-02-28T15:49:45;10.93;;;3.77;;
19897;SDS011;10111;50.814;4.572;2023-02-28T15:54:57;3.53;;;3.20;;
19897;SDS011;10111;50.814;4.572;2023-02-28T15:57:24;5.17;;;3.40;;
19897;SDS011;10111;50.814;4.572;2023-02-28T15:59:54;7.73;;;3.30;;
19897;SDS011;10111;50.814;4.572;2023-02-28T16:02:29;5.60;;;3.00;;
19897;SDS011;10111;50.814;4.572;2023-02-28T16:07:26;3.83;;;2.90;;
19897;SDS011;10111;50.814;4.572;2023-02-28T16:09:52;3.20;;;2.90;;
19897;SDS011;10111;50.814;4.572;2023-02-28T16:12:18;5.23;;;3.07;;
19897;SDS011;10111;50.814;4.572;2023-02-28T16:14:47;3.17;;;2.90;;
19897;SDS011;10111;50.814;4.572;2023-02-28T16:17:21;3.93;;;3.50;;
19897;SDS011;10111;50.814;4.572;2023-02-28T16:19:48;6.67;;;3.03;;
19897;SDS011;10111;50.814;4.572;2023-02-28T16:22:14;6.70;;;3.03;;
19897;SDS011;10111;50.814;4.572;2023-02-28T16:24:40;4.17;;;3.70;;
19897;SDS011;10111;50.814;4.572;2023-02-28T16:27:06;5.23;;;3.00;;
19897;SDS011;10111;50.814;4.572;2023-02-28T16:29:39;3.77;;;3.40;;
19897;SDS011;10111;50.814;4.572;2023-02-28T16:32:05;5.07;;;3.03;;
19897;SDS011;10111;50.814;4.572;2023-02-28T16:34:31;3.10;;;2.80;;
19897;SDS011;10111;50.814;4.572;2023-02-28T16:36:57;3.87;;;2.73;;
19897;SDS011;10111;50.814;4.572;2023-02-28T16:39:23;4.13;;;2.83;;
19897;SDS011;10111;50.814;4.572;2023-02-28T16:41:49;5.03;;;3.17;;
19897;SDS011;10111;50.814;4.572;2023-02-28T16:46:56;3.00;;;2.50;;
19897;SDS011;10111;50.814;4.572;2023-02-28T16:49:24;4.13;;;2.43;;
19897;SDS011;10111;50.814;4.572;2023-02-28T16:51:49;3.57;;;2.87;;
19897;SDS011;10111;50.814;4.572;2023-02-28T16:54:15;3.77;;;2.77;;
19897;SDS011;10111;50.814;4.572;2023-02-28T16:56:42;3.87;;;3.50;;
19897;SDS011;10111;50.814;4.572;2023-02-28T16:59:10;5.50;;;3.73;;
19897;SDS011;10111;50.814;4.572;2023-02-28T17:01:36;5.37;;;3.70;;
19897;SDS011;10111;50.814;4.572;2023-02-28T17:04:02;3.30;;;3.00;;
19897;SDS011;10111;50.814;4.572;2023-02-28T17:06:28;5.60;;;2.90;;
19897;SDS011;10111;50.814;4.572;2023-02-28T17:08:55;4.17;;;2.70;;
19897;SDS011;10111;50.814;4.572;2023-02-28T17:11:22;5.27;;;3.33;;
19897;SDS011;10111;50.814;4.572;2023-02-28T17:13:48;3.40;;;2.57;;
19897;SDS011;10111;50.814;4.572;2023-02-28T17:16:31;6.07;;;3.10;;
19897;SDS011;10111;50.814;4.572;2023-02-28T17:18:59;4.30;;;3.10;;
19897;SDS011;10111;50.814;4.572;2023-02-28T17:21:27;3.80;;;3.37;;
19897;SDS011;10111;50.814;4.572;2023-02-28T17:23:53;3.07;;;2.70;;
19897;SDS011;10111;50.814;4.572;2023-02-28T17:26:19;3.13;;;2.73;;
19897;SDS011;10111;50.814;4.572;2023-02-28T17:28:47;4.17;;;3.27;;
19897;SDS011;10111;50.814;4.572;2023-02-28T17:31:13;6.97;;;3.87;;
19897;SDS011;10111;50.814;4.572;2023-02-28T17:33:39;5.07;;;3.40;;
19897;SDS011;10111;50.814;4.572;2023-02-28T17:36:06;4.23;;;3.07;;
19897;SDS011;10111;50.814;4.572;2023-02-28T17:38:38;6.93;;;2.97;;
19897;SDS011;10111;50.814;4.572;2023-02-28T17:41:04;5.83;;;3.10;;
19897;SDS011;10111;50.814;4.572;2023-02-28T17:43:29;6.23;;;3.33;;
19897;SDS011;10111;50.814;4.572;2023-02-28T17:45:55;3.30;;;3.00;;
19897;SDS011;10111;50.814;4.572;2023-02-28T17:48:21;9.00;;;4.40;;
19897;SDS011;10111;50.814;4.572;2023-02-28T17:50:47;3.57;;;3.20;;